createdAt,value
2018-08-24T00:00:03.248Z,1.30
2018-08-24T00:02:31.305Z,1.50
2018-08-24T00:04:59.339Z,1.40
2018-08-24T00:07:27.685Z,1.27
2018-08-24T00:09:55.753Z,1.10
2018-08-24T00:12:23.929Z,1.87
2018-08-24T00:14:52.005Z,3.20
2018-08-24T00:17:20.109Z,3.40
2018-08-24T00:19:48.173Z,3.87
2018-08-24T00:22:16.213Z,2.80
2018-08-24T00:24:44.425Z,3.40
2018-08-24T00:27:12.813Z,2.63
2018-08-24T00:29:41.019Z,3.20
2018-08-24T00:32:09.041Z,4.07
2018-08-24T00:34:37.085Z,3.93
2018-08-24T00:37:05.162Z,4.30
2018-08-24T00:39:33.245Z,4.63
2018-08-24T00:42:01.294Z,3.80
2018-08-24T00:44:29.500Z,4.70
2018-08-24T00:46:57.786Z,3.50
2018-08-24T00:49:25.997Z,3.00
2018-08-24T00:51:54.138Z,4.40
2018-08-24T00:54:22.552Z,4.30
2018-08-24T00:56:50.656Z,4.97
2018-08-24T00:59:18.667Z,4.40
2018-08-24T01:01:46.710Z,4.53
2018-08-24T01:04:14.777Z,4.67
2018-08-24T01:06:43.673Z,4.97
2018-08-24T01:09:11.888Z,5.90
2018-08-24T01:11:40.004Z,4.60
2018-08-24T01:14:08.196Z,5.50
2018-08-24T01:16:37.102Z,5.20
2018-08-24T01:19:05.431Z,3.57
2018-08-24T01:21:33.591Z,5.30
2018-08-24T01:24:01.713Z,5.70
2018-08-24T01:26:29.968Z,6.53
2018-08-24T01:28:58.093Z,5.80
2018-08-24T01:31:26.493Z,6.73
2018-08-24T01:33:55.053Z,6.23
2018-08-24T01:36:23.245Z,7.87
2018-08-24T01:38:52.703Z,7.00
2018-08-24T01:41:22.705Z,5.33
2018-08-24T01:43:50.821Z,7.27
2018-08-24T01:46:18.909Z,7.07
2018-08-24T01:48:46.942Z,7.07
2018-08-24T01:51:15.098Z,6.63
2018-08-24T01:53:43.239Z,6.97
2018-08-24T01:56:11.293Z,7.67
2018-08-24T01:58:39.322Z,6.03
2018-08-24T02:01:07.388Z,7.60
2018-08-24T02:03:35.424Z,7.40
2018-08-24T02:06:03.461Z,6.67
2018-08-24T02:08:31.633Z,7.03
2018-08-24T02:10:59.714Z,8.20
2018-08-24T02:13:27.873Z,7.80
2018-08-24T02:15:55.891Z,5.00
2018-08-24T02:18:23.921Z,6.60
2018-08-24T02:20:52.093Z,7.83
2018-08-24T02:23:20.187Z,6.87
2018-08-24T02:25:48.201Z,7.80
2018-08-24T02:28:16.264Z,8.73
2018-08-24T02:30:44.316Z,6.73
2018-08-24T02:33:12.385Z,6.43
2018-08-24T02:38:14.828Z,8.03
2018-08-24T02:40:42.887Z,9.70
2018-08-24T02:43:11.012Z,9.07
2018-08-24T02:45:39.194Z,8.83
2018-08-24T02:48:07.265Z,10.33
2018-08-24T02:50:35.423Z,10.23
2018-08-24T02:53:03.815Z,8.70
2018-08-24T02:55:31.981Z,11.03
2018-08-24T02:58:00.020Z,9.90
2018-08-24T03:00:28.321Z,10.30
2018-08-24T03:02:56.402Z,9.23
2018-08-24T03:05:24.847Z,9.43
2018-08-24T03:07:53.222Z,7.97
2018-08-24T03:10:21.325Z,8.97
2018-08-24T03:12:49.438Z,8.80
2018-08-24T03:15:17.665Z,8.90
2018-08-24T03:17:45.710Z,7.47
2018-08-24T03:20:13.788Z,7.47
2018-08-24T03:22:41.847Z,6.70
2018-08-24T03:25:09.892Z,6.37
2018-08-24T03:27:37.946Z,6.67
2018-08-24T03:30:06.408Z,5.80
2018-08-24T03:32:34.829Z,5.13
2018-08-24T03:35:02.854Z,5.27
2018-08-24T03:37:30.906Z,4.87
2018-08-24T03:39:58.968Z,5.07
2018-08-24T03:42:27.149Z,5.23
2018-08-24T03:44:56.093Z,5.83
2018-08-24T03:47:24.201Z,5.23
2018-08-24T03:49:52.216Z,5.90
2018-08-24T03:52:20.277Z,6.03
2018-08-24T03:54:48.533Z,6.07
2018-08-24T03:57:16.681Z,5.03
2018-08-24T03:59:44.868Z,5.97
2018-08-24T04:02:13.057Z,6.17
2018-08-24T04:04:41.168Z,6.13
2018-08-24T04:07:09.461Z,5.53
2018-08-24T04:09:37.588Z,6.03
2018-08-24T04:12:08.075Z,6.37
2018-08-24T04:14:36.194Z,7.03
2018-08-24T04:17:04.450Z,6.17
2018-08-24T04:19:32.600Z,6.87
2018-08-24T04:22:00.698Z,6.63
2018-08-24T04:24:28.791Z,5.77
2018-08-24T04:26:56.991Z,6.87
2018-08-24T04:29:25.012Z,6.23
2018-08-24T04:31:53.109Z,7.57
2018-08-24T04:34:21.205Z,6.97
2018-08-24T04:36:49.262Z,7.57
2018-08-24T04:39:17.294Z,7.70
2018-08-24T04:41:45.366Z,6.67
2018-08-24T04:44:13.463Z,7.07
2018-08-24T04:46:41.543Z,8.07
2018-08-24T04:49:09.624Z,7.70
2018-08-24T04:51:37.744Z,8.17
2018-08-24T04:54:05.892Z,8.03
2018-08-24T04:56:33.928Z,8.63
2018-08-24T04:59:01.997Z,8.63
2018-08-24T05:01:30.047Z,8.80
2018-08-24T05:03:58.133Z,6.93
2018-08-24T05:06:26.184Z,8.37
2018-08-24T05:08:54.250Z,7.90
2018-08-24T05:11:22.272Z,8.00
2018-08-24T05:13:50.405Z,8.33
2018-08-24T05:16:18.482Z,9.27
2018-08-24T05:18:46.593Z,10.00
2018-08-24T05:21:14.745Z,9.03
2018-08-24T05:23:42.767Z,8.53
2018-08-24T05:26:10.832Z,8.70
2018-08-24T05:28:39.045Z,9.33
2018-08-24T05:31:07.134Z,9.67
2018-08-24T05:33:36.002Z,9.20
2018-08-24T05:36:04.053Z,9.10
2018-08-24T05:38:32.366Z,9.43
2018-08-24T05:41:00.886Z,10.50
2018-08-24T05:43:28.978Z,9.40
2018-08-24T05:45:57.057Z,10.33
2018-08-24T05:48:25.148Z,8.73
2018-08-24T05:50:53.379Z,10.40
2018-08-24T05:53:21.457Z,10.87
2018-08-24T05:55:49.525Z,9.67
2018-08-24T05:58:17.581Z,11.30
2018-08-24T06:00:46.007Z,11.47
2018-08-24T06:03:14.009Z,10.07
2018-08-24T06:05:42.110Z,11.90
2018-08-24T06:08:10.149Z,11.90
2018-08-24T06:10:38.449Z,11.77
2018-08-24T06:13:06.663Z,9.73
2018-08-24T06:15:34.841Z,11.40
2018-08-24T06:18:04.150Z,11.33
2018-08-24T06:20:32.379Z,11.27
2018-08-24T06:23:00.413Z,10.30
2018-08-24T06:25:28.434Z,10.27
2018-08-24T06:27:56.505Z,11.50
2018-08-24T06:30:24.585Z,11.57
2018-08-24T06:32:52.699Z,11.60
2018-08-24T06:35:20.773Z,12.53
2018-08-24T06:37:48.813Z,11.80
2018-08-24T06:40:16.858Z,11.17
2018-08-24T06:42:44.917Z,11.63
2018-08-24T06:45:13.889Z,11.43
2018-08-24T06:47:41.959Z,10.43
2018-08-24T06:50:10.057Z,9.93
2018-08-24T06:52:38.088Z,11.23
2018-08-24T06:55:06.460Z,12.53
2018-08-24T06:57:34.486Z,11.70
2018-08-24T07:00:02.890Z,11.93
2018-08-24T07:02:30.913Z,11.57
2018-08-24T07:04:59.157Z,12.03
2018-08-24T07:07:27.579Z,12.60
2018-08-24T07:09:55.645Z,12.03
2018-08-24T07:12:23.792Z,12.17
2018-08-24T07:14:52.076Z,10.17
2018-08-24T07:17:20.162Z,11.97
2018-08-24T07:19:48.204Z,10.77
2018-08-24T07:22:16.264Z,10.40
2018-08-24T07:24:44.507Z,11.63
2018-08-24T07:27:12.542Z,11.30
2018-08-24T07:29:40.747Z,10.87
2018-08-24T07:32:08.845Z,11.07
2018-08-24T07:34:36.920Z,10.10
2018-08-24T07:37:05.285Z,12.37
2018-08-24T07:39:33.530Z,12.53
2018-08-24T07:42:02.703Z,11.90
2018-08-24T07:44:30.733Z,11.43
2018-08-24T07:46:59.524Z,11.93
2018-08-24T07:49:27.582Z,12.57
2018-08-24T07:51:56.124Z,12.97
2018-08-24T07:54:24.200Z,11.67
2018-08-24T07:56:52.260Z,8.33
2018-08-24T07:59:20.278Z,7.67
2018-08-24T08:01:48.535Z,7.37
2018-08-24T08:04:16.580Z,7.40
2018-08-24T08:06:46.173Z,7.27
2018-08-24T08:09:14.315Z,6.97
2018-08-24T08:11:42.357Z,6.33
2018-08-24T08:14:12.079Z,5.93
2018-08-24T08:16:40.168Z,5.77
2018-08-24T08:19:08.275Z,5.33
2018-08-24T08:21:36.310Z,5.77
2018-08-24T08:24:04.709Z,5.30
2018-08-24T08:26:32.829Z,4.87
2018-08-24T08:29:01.057Z,4.50
2018-08-24T08:31:29.114Z,4.67
2018-08-24T08:33:57.174Z,4.63
2018-08-24T08:36:25.200Z,4.77
2018-08-24T08:38:53.377Z,4.37
2018-08-24T08:41:21.891Z,4.37
2018-08-24T08:43:50.146Z,4.60
2018-08-24T08:46:18.197Z,4.07
2018-08-24T08:48:46.212Z,5.00
2018-08-24T08:51:14.283Z,4.83
2018-08-24T08:53:42.586Z,4.80
2018-08-24T08:56:11.440Z,5.10
2018-08-24T08:58:39.854Z,5.20
2018-08-24T09:01:08.498Z,4.93
2018-08-24T09:03:36.553Z,5.00
2018-08-24T09:06:04.750Z,4.53
2018-08-24T09:08:32.862Z,3.93
2018-08-24T09:11:01.160Z,3.60
2018-08-24T09:13:29.338Z,2.87
2018-08-24T09:15:57.410Z,3.90
2018-08-24T09:18:25.497Z,4.13
2018-08-24T09:20:53.541Z,3.43
2018-08-24T09:23:21.658Z,4.57
2018-08-24T09:25:49.833Z,3.97
2018-08-24T09:28:17.794Z,2.73
2018-08-24T09:30:45.853Z,3.93
2018-08-24T09:33:13.913Z,3.97
2018-08-24T09:35:42.042Z,2.97
2018-08-24T09:38:10.144Z,4.03
2018-08-24T09:40:38.152Z,3.87
2018-08-24T09:43:06.291Z,3.80
2018-08-24T09:45:34.268Z,3.73
2018-08-24T09:48:02.345Z,3.30
2018-08-24T09:50:30.430Z,3.53
2018-08-24T09:52:58.501Z,3.00
2018-08-24T09:55:26.569Z,3.37
2018-08-24T09:57:54.857Z,3.13
2018-08-24T10:00:23.985Z,3.20
2018-08-24T10:02:52.448Z,2.07
2018-08-24T10:05:20.639Z,2.27
2018-08-24T10:07:48.678Z,2.77
2018-08-24T10:10:16.839Z,2.73
2018-08-24T10:12:44.875Z,1.83
2018-08-24T10:15:12.964Z,2.60
2018-08-24T10:17:42.395Z,2.40
2018-08-24T10:20:10.403Z,2.30
2018-08-24T10:22:42.741Z,2.70
2018-08-24T10:25:11.922Z,2.53
2018-08-24T10:27:39.989Z,2.80
2018-08-24T10:30:08.053Z,2.30
2018-08-24T10:32:36.104Z,1.93
2018-08-24T10:35:04.274Z,1.73
2018-08-24T10:37:32.561Z,2.20
2018-08-24T10:40:00.600Z,2.87
2018-08-24T10:42:29.101Z,2.10
2018-08-24T10:44:59.615Z,1.40
2018-08-24T10:47:27.865Z,1.90
2018-08-24T10:49:55.984Z,2.10
2018-08-24T10:52:24.056Z,2.00
2018-08-24T10:54:52.351Z,1.70
2018-08-24T10:57:20.756Z,2.40
2018-08-24T10:59:51.517Z,2.60
2018-08-24T11:02:19.670Z,1.67
2018-08-24T11:04:47.797Z,2.00
2018-08-24T11:07:15.904Z,1.80
2018-08-24T11:09:44.063Z,1.83
2018-08-24T11:12:12.438Z,1.67
2018-08-24T11:14:40.458Z,1.97
2018-08-24T11:17:09.178Z,2.13
2018-08-24T11:19:37.530Z,1.83
2018-08-24T11:22:05.781Z,2.57
2018-08-24T11:24:36.017Z,1.70
2018-08-24T11:27:04.807Z,1.90
2018-08-24T11:29:33.077Z,2.03
2018-08-24T11:32:01.192Z,2.03
2018-08-24T11:34:29.756Z,1.77
2018-08-24T11:36:58.466Z,1.63
2018-08-24T11:39:26.894Z,2.03
2018-08-24T11:41:55.363Z,2.37
2018-08-24T11:44:23.875Z,1.80
2018-08-24T11:46:52.102Z,1.90
2018-08-24T11:49:20.540Z,1.70
2018-08-24T11:51:48.621Z,1.87
2018-08-24T11:54:16.865Z,2.20
2018-08-24T11:56:44.901Z,2.07
2018-08-24T11:59:13.682Z,2.27
2018-08-24T12:01:41.781Z,2.30
2018-08-24T12:04:09.829Z,1.87
2018-08-24T12:06:39.352Z,2.00
2018-08-24T12:09:08.025Z,1.97
2018-08-24T12:11:36.195Z,2.03
2018-08-24T12:14:04.368Z,2.07
2018-08-24T12:16:33.443Z,2.17
2018-08-24T12:19:01.557Z,1.70
2018-08-24T12:21:30.661Z,1.80
2018-08-24T12:23:58.881Z,1.50
2018-08-24T12:26:26.965Z,1.90
2018-08-24T12:28:55.173Z,1.70
2018-08-24T12:31:23.921Z,1.77
2018-08-24T12:33:52.045Z,1.50
2018-08-24T12:36:20.209Z,1.80
2018-08-24T12:38:48.448Z,2.05
2018-08-24T12:41:16.652Z,1.53
2018-08-24T12:43:44.734Z,1.33
2018-08-24T12:46:13.890Z,1.50
2018-08-24T12:48:42.361Z,1.40
2018-08-24T12:51:10.480Z,1.50
2018-08-24T12:53:38.720Z,1.37
2018-08-24T12:56:06.930Z,1.60
2018-08-24T12:58:35.162Z,1.40
2018-08-24T13:01:03.277Z,1.30
2018-08-24T13:03:31.574Z,1.70
2018-08-24T13:08:45.140Z,1.53
2018-08-24T13:13:58.236Z,1.40
2018-08-24T13:16:26.433Z,1.40
2018-08-24T13:19:58.992Z,1.53
2018-08-24T13:22:28.109Z,1.30
2018-08-24T13:24:56.136Z,1.53
2018-08-24T13:27:25.199Z,1.50
2018-08-24T13:29:53.442Z,1.40
2018-08-24T13:32:21.488Z,1.90
2018-08-24T13:34:50.666Z,1.70
2018-08-24T13:37:18.710Z,1.30
2018-08-24T13:39:47.276Z,1.50
2018-08-24T13:42:15.334Z,1.60
2018-08-24T13:44:43.425Z,1.73
2018-08-24T13:47:11.490Z,1.83
2018-08-24T13:49:39.647Z,1.60
2018-08-24T13:52:09.763Z,1.50
2018-08-24T13:54:37.784Z,1.90
2018-08-24T13:57:06.308Z,1.70
2018-08-24T13:59:34.532Z,1.70
2018-08-24T14:02:02.740Z,1.80
2018-08-24T14:04:30.949Z,1.60
2018-08-24T14:06:59.155Z,1.50
2018-08-24T14:09:27.260Z,2.17
2018-08-24T14:11:55.327Z,1.77
2018-08-24T14:14:23.629Z,1.30
2018-08-24T14:16:51.850Z,1.30
2018-08-24T14:19:20.921Z,1.50
2018-08-24T14:21:49.043Z,1.50
2018-08-24T14:24:17.137Z,1.90
2018-08-24T14:26:45.258Z,1.37
2018-08-24T14:29:13.379Z,1.80
2018-08-24T14:31:41.796Z,1.33
2018-08-24T14:34:09.933Z,1.83
2018-08-24T14:36:38.197Z,1.73
2018-08-24T14:39:07.605Z,1.67
2018-08-24T14:41:35.721Z,1.50
2018-08-24T14:44:03.856Z,2.07
2018-08-24T14:46:31.951Z,1.60
2018-08-24T14:49:00.289Z,1.90
2018-08-24T14:51:29.473Z,2.07
2018-08-24T14:53:59.739Z,1.93
2018-08-24T14:56:27.861Z,1.60
2018-08-24T14:58:56.072Z,1.90
2018-08-24T15:01:24.124Z,1.73
2018-08-24T15:03:52.375Z,1.83
2018-08-24T15:06:20.409Z,1.67
2018-08-24T15:08:48.589Z,1.73
2018-08-24T15:11:16.872Z,1.63
2018-08-24T15:13:44.974Z,1.60
2018-08-24T15:16:13.015Z,1.60
2018-08-24T15:18:41.208Z,1.80
2018-08-24T15:21:09.249Z,1.90
2018-08-24T15:23:37.356Z,1.80
2018-08-24T15:26:05.523Z,1.80
2018-08-24T15:28:34.784Z,1.53
2018-08-24T15:31:02.973Z,1.47
2018-08-24T15:33:31.068Z,1.60
2018-08-24T15:35:59.885Z,1.43
2018-08-24T15:38:28.109Z,1.50
2018-08-24T15:40:56.250Z,1.40
2018-08-24T15:43:24.369Z,1.40
2018-08-24T15:45:53.147Z,1.80
2018-08-24T15:48:21.372Z,1.60
2018-08-24T15:50:49.484Z,1.60
2018-08-24T15:53:17.541Z,1.50
2018-08-24T15:55:46.675Z,1.47
2018-08-24T15:58:14.844Z,1.80
2018-08-24T16:00:42.917Z,1.77
2018-08-24T16:03:10.958Z,1.37
2018-08-24T16:05:39.174Z,1.50
2018-08-24T16:08:07.485Z,1.90
2018-08-24T16:10:35.813Z,1.57
2018-08-24T16:13:04.199Z,2.20
2018-08-24T16:15:32.453Z,1.30
2018-08-24T16:18:00.673Z,2.10
2018-08-24T16:20:28.812Z,1.60
2018-08-24T16:22:56.927Z,1.73
2018-08-24T16:25:26.266Z,1.53
2018-08-24T16:27:54.342Z,1.97
2018-08-24T16:30:28.078Z,1.70
2018-08-24T16:32:56.203Z,1.97
2018-08-24T16:35:24.274Z,1.50
2018-08-24T16:37:52.383Z,1.60
2018-08-24T16:40:20.451Z,1.40
2018-08-24T16:42:48.788Z,1.70
2018-08-24T16:45:16.884Z,1.70
2018-08-24T16:47:45.119Z,1.67
2018-08-24T16:50:13.178Z,1.17
2018-08-24T16:52:42.215Z,1.60
2018-08-24T16:55:10.306Z,1.40
2018-08-24T16:57:38.485Z,1.67
2018-08-24T17:00:07.209Z,1.80
2018-08-24T17:02:35.310Z,1.60
2018-08-24T17:05:03.631Z,1.53
2018-08-24T17:07:31.919Z,1.40
2018-08-24T17:10:00.146Z,1.60
2018-08-24T17:12:28.365Z,1.60
2018-08-24T17:14:56.402Z,1.67
2018-08-24T17:17:24.637Z,1.50
2018-08-24T17:19:52.763Z,1.40
2018-08-24T17:22:21.128Z,1.70
2018-08-24T17:24:49.435Z,1.90
2018-08-24T17:27:17.594Z,1.67
2018-08-24T17:29:45.788Z,1.40
2018-08-24T17:32:13.907Z,1.30
2018-08-24T17:34:42.244Z,1.70
2018-08-24T17:37:10.360Z,1.47
2018-08-24T17:39:38.445Z,1.90
2018-08-24T17:42:06.616Z,1.40
2018-08-24T17:44:34.707Z,1.70
2018-08-24T17:47:02.885Z,1.80
2018-08-24T17:49:31.337Z,1.73
2018-08-24T17:51:59.477Z,1.70
2018-08-24T17:54:28.635Z,1.67
2018-08-24T17:56:56.713Z,1.80
2018-08-24T17:59:24.929Z,1.40
2018-08-24T18:01:53.196Z,1.60
2018-08-24T18:04:21.692Z,1.70
2018-08-24T18:06:49.761Z,1.70
2018-08-24T18:09:17.863Z,1.50
2018-08-24T18:14:32.244Z,1.90
2018-08-24T18:17:00.602Z,2.00
2018-08-24T18:19:28.680Z,2.07
2018-08-24T18:21:56.811Z,1.80
2018-08-24T18:24:24.987Z,2.13
2018-08-24T18:26:53.026Z,1.93
2018-08-24T18:29:21.231Z,1.93
2018-08-24T18:31:49.338Z,1.37
2018-08-24T18:34:17.399Z,1.50
2018-08-24T18:36:45.532Z,1.83
2018-08-24T18:39:13.539Z,1.70
2018-08-24T18:41:41.585Z,1.83
2018-08-24T18:44:09.850Z,1.97
2018-08-24T18:46:37.953Z,1.50
2018-08-24T18:49:06.330Z,1.50
2018-08-24T18:54:18.367Z,1.60
2018-08-24T18:56:46.673Z,1.40
2018-08-24T18:59:14.844Z,1.60
2018-08-24T19:01:43.010Z,1.53
2018-08-24T19:04:11.156Z,1.90
2018-08-24T19:06:39.283Z,1.40
2018-08-24T19:09:08.089Z,1.87
2018-08-24T19:11:36.256Z,1.90
2018-08-24T19:14:04.398Z,1.93
2018-08-24T19:16:32.561Z,1.90
2018-08-24T19:19:00.645Z,1.47
2018-08-24T19:21:29.099Z,2.13
2018-08-24T19:23:57.174Z,2.10
2018-08-24T19:26:25.238Z,1.40
2018-08-24T19:28:53.509Z,1.60
2018-08-24T19:31:21.579Z,1.50
2018-08-24T19:33:51.073Z,1.47
2018-08-24T19:36:19.442Z,1.90
2018-08-24T19:38:47.593Z,1.63
2018-08-24T19:41:15.975Z,1.33
2018-08-24T19:43:44.491Z,1.60
2018-08-24T19:46:12.565Z,1.30
2018-08-24T19:48:40.679Z,1.80
2018-08-24T19:51:08.786Z,1.70
2018-08-24T19:53:36.875Z,1.60
2018-08-24T19:56:05.242Z,2.00
2018-08-24T19:58:33.446Z,1.63
2018-08-24T20:01:01.757Z,1.60
2018-08-24T20:03:29.887Z,1.77
2018-08-24T20:05:58.163Z,1.50
2018-08-24T20:08:26.371Z,1.93
2018-08-24T20:10:54.533Z,1.80
2018-08-24T20:13:22.622Z,1.57
2018-08-24T20:15:50.700Z,1.73
2018-08-24T20:18:19.019Z,2.10
2018-08-24T20:20:47.112Z,2.07
2018-08-24T20:23:15.146Z,2.67
2018-08-24T20:25:43.230Z,1.53
2018-08-24T20:28:11.323Z,1.87
2018-08-24T20:30:39.482Z,1.90
2018-08-24T20:40:04.881Z,1.73
2018-08-24T20:42:33.014Z,1.53
2018-08-24T20:45:01.169Z,1.47
2018-08-24T20:47:31.109Z,1.63
2018-08-24T20:49:59.646Z,2.00
2018-08-24T20:52:27.714Z,1.70
2018-08-24T20:54:55.751Z,1.53
2018-08-24T20:57:24.053Z,1.77
2018-08-24T20:59:52.247Z,1.80
2018-08-24T21:02:20.582Z,1.70
2018-08-24T21:04:58.910Z,2.20
2018-08-24T21:07:29.053Z,1.70
2018-08-24T21:09:57.310Z,1.50
2018-08-24T21:12:25.433Z,1.77
2018-08-24T21:14:53.605Z,1.50
2018-08-24T21:17:21.709Z,1.53
2018-08-24T21:19:49.748Z,1.63
2018-08-24T21:22:17.928Z,1.63
2018-08-24T21:24:46.041Z,1.63
2018-08-24T21:27:14.123Z,1.90
2018-08-24T21:29:42.346Z,1.60
2018-08-24T21:32:10.433Z,1.30
2018-08-24T21:34:38.559Z,1.30
2018-08-24T21:37:09.612Z,1.60
2018-08-24T21:39:39.958Z,1.80
2018-08-24T21:42:08.175Z,1.50
2018-08-24T21:44:36.182Z,1.57
2018-08-24T21:47:04.278Z,2.00
2018-08-24T21:49:33.410Z,1.70
2018-08-24T21:52:01.469Z,1.73
2018-08-24T21:54:29.516Z,1.77
2018-08-24T21:56:57.584Z,2.00
2018-08-24T21:59:27.118Z,1.90
2018-08-24T22:01:55.229Z,1.90
2018-08-24T22:04:23.432Z,1.70
2018-08-24T22:06:51.528Z,1.40
2018-08-24T22:09:19.645Z,1.97
2018-08-24T22:11:47.720Z,1.77
2018-08-24T22:14:15.858Z,1.40
2018-08-24T22:16:46.125Z,1.53
2018-08-24T22:19:14.134Z,1.47
2018-08-24T22:21:43.395Z,1.43
2018-08-24T22:24:11.458Z,1.30
2018-08-24T22:26:39.495Z,1.60
2018-08-24T22:29:07.609Z,1.43
2018-08-24T22:31:38.090Z,1.10
2018-08-24T22:34:06.378Z,1.43
2018-08-24T22:36:34.413Z,1.73
2018-08-24T22:39:03.172Z,1.37
2018-08-24T22:41:31.409Z,1.53
2018-08-24T22:43:59.489Z,1.40
2018-08-24T22:46:27.601Z,1.20
2018-08-24T22:48:55.676Z,1.00
2018-08-24T22:51:23.959Z,1.20
2018-08-24T22:53:52.704Z,1.27
2018-08-24T22:56:20.790Z,1.27
2018-08-24T22:58:48.841Z,1.27
2018-08-24T23:01:16.871Z,1.17
2018-08-24T23:03:44.892Z,1.33
2018-08-24T23:06:13.061Z,1.77
2018-08-24T23:08:41.261Z,1.60
2018-08-24T23:11:09.308Z,1.63
2018-08-24T23:13:37.397Z,1.30
2018-08-24T23:16:06.904Z,1.50
2018-08-24T23:18:35.017Z,1.00
2018-08-24T23:21:03.105Z,1.00
2018-08-24T23:23:31.240Z,1.17
2018-08-24T23:25:59.327Z,1.27
2018-08-24T23:28:27.388Z,1.00
2018-08-24T23:30:55.489Z,1.33
2018-08-24T23:33:23.542Z,1.00
2018-08-24T23:35:51.627Z,1.43
2018-08-24T23:38:19.674Z,1.27
2018-08-24T23:40:47.786Z,1.20
2018-08-24T23:43:15.892Z,1.10
2018-08-24T23:45:43.948Z,1.40
2018-08-24T23:48:12.077Z,1.27
2018-08-24T23:50:40.125Z,1.27
2018-08-24T23:53:10.109Z,1.00
2018-08-24T23:55:38.138Z,0.90
2018-08-24T23:58:06.208Z,1.70
